Terminal Aerodrome Forecast
Issued by NWS

Home | Current Version | Previous Version | Graphics & Text | Print | Product List | Glossary On
Versions: 1 2 3 4 5 6 7 8 9 10 11 12 13 14 15 16 17 18 19 20 21 22 23 24 25 26 27 28 29 30
481
FTUS45 KGGW 191440 AAA
TAFGDV
TAF AMD
KGDV 191440Z 1915/2012 06008KT 1/2SM FZFG OVC002
     FM191600 07006KT 3SM BR SCT030
     FM191700 09010KT P6SM FEW070=

USA.gov is the U.S. government's official web portal to all federal, state and local government web resources and services.